createdAt,value
2019-02-04T00:00:49.435Z,-0.70
2019-02-04T00:02:52.778Z,-0.70
2019-02-04T00:04:54.532Z,-0.70
2019-02-04T00:06:56.191Z,-0.70
2019-02-04T00:08:57.919Z,-0.70
2019-02-04T00:10:59.584Z,-0.70
2019-02-04T00:13:01.266Z,-0.80
2019-02-04T00:15:06.995Z,-0.80
2019-02-04T00:17:09.139Z,-0.80
2019-02-04T00:19:10.857Z,-0.80
2019-02-04T00:21:12.743Z,-0.80
2019-02-04T00:23:14.421Z,-0.80
2019-02-04T00:25:16.116Z,-0.90
2019-02-04T00:27:17.837Z,-0.90
2019-02-04T00:29:19.631Z,-0.90
2019-02-04T00:31:21.489Z,-0.90
2019-02-04T00:33:23.195Z,-0.90
2019-02-04T00:35:25.081Z,-0.90
2019-02-04T00:37:26.744Z,-0.90
2019-02-04T00:39:28.798Z,-0.90
2019-02-04T00:41:30.594Z,-1.00
2019-02-04T00:43:32.451Z,-1.00
2019-02-04T00:45:34.185Z,-1.00
2019-02-04T00:47:35.572Z,-1.00
2019-02-04T00:49:36.963Z,-1.00
2019-02-04T00:51:38.448Z,-1.00
2019-02-04T00:53:39.819Z,-1.10
2019-02-04T00:55:41.188Z,-1.10
2019-02-04T00:57:42.628Z,-1.10
2019-02-04T00:59:43.999Z,-1.10
2019-02-04T01:01:45.384Z,-1.20
2019-02-04T01:03:46.907Z,-1.20
2019-02-04T01:05:48.281Z,-1.10
2019-02-04T01:07:49.960Z,-1.20
2019-02-04T01:09:52.041Z,-1.20
2019-02-04T01:11:53.416Z,-1.20
2019-02-04T01:13:54.784Z,-1.20
2019-02-04T01:15:56.286Z,-1.20
2019-02-04T01:17:58.276Z,-1.20
2019-02-04T01:19:59.706Z,-1.10
2019-02-04T01:22:01.291Z,-1.10
2019-02-04T01:24:03.055Z,-1.10
2019-02-04T01:26:04.605Z,-1.10
2019-02-04T01:28:05.967Z,-1.20
2019-02-04T01:30:20.040Z,-1.20
2019-02-04T01:32:21.446Z,-1.20
2019-02-04T01:34:22.815Z,-1.20
2019-02-04T01:36:24.201Z,-1.20
2019-02-04T01:38:26.027Z,-1.20
2019-02-04T01:40:27.390Z,-1.20
2019-02-04T01:42:28.817Z,-1.20
2019-02-04T01:44:30.190Z,-1.30
2019-02-04T01:46:31.548Z,-1.30
2019-02-04T01:48:32.958Z,-1.30
2019-02-04T01:50:34.321Z,-1.30
2019-02-04T01:52:35.746Z,-1.30
2019-02-04T01:54:37.113Z,-1.30
2019-02-04T01:56:38.475Z,-1.40
2019-02-04T01:58:40.062Z,-1.50
2019-02-04T02:00:41.434Z,-1.60
2019-02-04T02:02:42.797Z,-1.60
2019-02-04T02:04:44.765Z,-1.70
2019-02-04T02:06:46.156Z,-1.70
2019-02-04T02:08:47.528Z,-1.70
2019-02-04T02:10:49.196Z,-1.80
2019-02-04T02:12:51.060Z,-1.80
2019-02-04T02:14:52.446Z,-1.80
2019-02-04T02:16:54.084Z,-1.90
2019-02-04T02:18:55.633Z,-1.90
2019-02-04T02:20:57.011Z,-1.90
2019-02-04T02:22:58.690Z,-1.90
2019-02-04T02:25:00.144Z,-1.90
2019-02-04T02:27:01.633Z,-1.90
2019-02-04T02:29:03.175Z,-1.90
2019-02-04T02:31:04.844Z,-1.90
2019-02-04T02:33:06.223Z,-1.90
2019-02-04T02:35:09.755Z,-2.00
2019-02-04T02:37:11.138Z,-2.00
2019-02-04T02:39:12.665Z,-2.00
2019-02-04T02:41:14.024Z,-2.00
2019-02-04T02:43:15.386Z,-2.00
2019-02-04T02:45:16.895Z,-2.10
2019-02-04T02:47:18.278Z,-2.10
2019-02-04T02:49:19.644Z,-2.10
2019-02-04T02:51:21.049Z,-2.10
2019-02-04T02:53:22.465Z,-2.20
2019-02-04T02:55:23.933Z,-2.20
2019-02-04T02:57:25.696Z,-2.20
2019-02-04T02:59:27.064Z,-2.20
2019-02-04T03:01:28.639Z,-2.20
2019-02-04T03:03:30.011Z,-2.20
2019-02-04T03:05:31.684Z,-2.20
2019-02-04T03:07:33.109Z,-2.30
2019-02-04T03:09:34.499Z,-2.30
2019-02-04T03:11:35.853Z,-2.30
2019-02-04T03:13:37.254Z,-2.30
2019-02-04T03:15:38.615Z,-2.30
2019-02-04T03:17:51.561Z,-2.40
2019-02-04T03:19:43.518Z,-2.40
2019-02-04T03:21:44.895Z,-2.40
2019-02-04T03:23:46.675Z,-2.40
2019-02-04T03:25:48.114Z,-2.40
2019-02-04T03:27:49.590Z,-2.40
2019-02-04T03:29:50.972Z,-2.50
2019-02-04T03:31:52.595Z,-2.50
2019-02-04T03:33:53.971Z,-2.50
2019-02-04T03:35:55.334Z,-2.50
2019-02-04T03:37:56.749Z,-2.50
2019-02-04T03:39:58.163Z,-2.50
2019-02-04T03:41:59.522Z,-2.60
2019-02-04T03:44:00.895Z,-2.60
2019-02-04T03:46:02.425Z,-2.60
2019-02-04T03:48:06.961Z,-2.60
2019-02-04T03:50:10.441Z,-2.60
2019-02-04T03:52:11.881Z,-2.60
2019-02-04T03:54:13.222Z,-2.60
2019-02-04T03:56:14.638Z,-2.70
2019-02-04T03:58:16.104Z,-2.70
2019-02-04T04:00:22.376Z,-2.70
2019-02-04T04:02:23.975Z,-2.70
2019-02-04T04:04:25.357Z,-2.70
2019-02-04T04:06:26.740Z,-2.70
2019-02-04T04:08:28.157Z,-2.70
2019-02-04T04:10:29.508Z,-2.70
2019-02-04T04:12:30.889Z,-2.70
2019-02-04T04:14:32.318Z,-2.70
2019-02-04T04:16:33.678Z,-2.70
2019-02-04T04:18:35.041Z,-2.80
2019-02-04T04:20:36.717Z,-2.80
2019-02-04T04:22:38.274Z,-2.80
2019-02-04T04:24:39.642Z,-2.70
2019-02-04T04:26:41.054Z,-2.60
2019-02-04T04:28:42.421Z,-2.60
2019-02-04T04:30:43.835Z,-2.70
2019-02-04T04:32:45.326Z,-2.70
2019-02-04T04:34:47.062Z,-2.70
2019-02-04T04:36:48.523Z,-2.60
2019-02-04T04:38:49.905Z,-2.60
2019-02-04T04:40:51.275Z,-2.50
2019-02-04T04:42:52.679Z,-2.40
2019-02-04T04:44:54.047Z,-2.30
2019-02-04T04:46:55.423Z,-2.30
2019-02-04T04:48:56.842Z,-2.30
2019-02-04T04:50:58.208Z,-2.20
2019-02-04T04:52:59.568Z,-2.20
2019-02-04T04:55:01.040Z,-2.20
2019-02-04T04:57:02.417Z,-2.30
2019-02-04T04:59:03.980Z,-2.20
2019-02-04T05:01:05.705Z,-2.20
2019-02-04T05:03:07.067Z,-2.10
2019-02-04T05:05:11.451Z,-2.10
2019-02-04T05:07:12.864Z,-2.00
2019-02-04T05:09:14.244Z,-2.00
2019-02-04T05:11:15.615Z,-2.00
2019-02-04T05:13:17.035Z,-2.00
2019-02-04T05:15:24.777Z,-2.10
2019-02-04T05:17:26.135Z,-2.10
2019-02-04T05:19:27.964Z,-2.10
2019-02-04T05:21:29.574Z,-2.10
2019-02-04T05:23:30.963Z,-2.20
2019-02-04T05:25:32.317Z,-2.20
2019-02-04T05:27:33.723Z,-2.20
2019-02-04T05:29:35.098Z,-2.30
2019-02-04T05:31:36.570Z,-2.30
2019-02-04T05:33:38.054Z,-2.40
2019-02-04T05:35:39.411Z,-2.40
2019-02-04T05:37:40.983Z,-2.40
2019-02-04T05:39:42.404Z,-2.40
2019-02-04T05:41:43.771Z,-2.40
2019-02-04T05:43:45.124Z,-2.40
2019-02-04T05:45:46.838Z,-2.30
2019-02-04T05:47:48.339Z,-2.30
2019-02-04T05:49:49.700Z,-2.30
2019-02-04T05:51:51.292Z,-2.30
2019-02-04T05:53:52.659Z,-2.20
2019-02-04T05:55:54.012Z,-2.30
2019-02-04T05:57:55.425Z,-2.30
2019-02-04T05:59:56.794Z,-2.40
2019-02-04T06:01:58.249Z,-2.50
2019-02-04T06:03:59.647Z,-2.50
2019-02-04T06:06:01.028Z,-2.60
2019-02-04T06:08:03.021Z,-2.60
2019-02-04T06:10:08.323Z,-2.70
2019-02-04T06:12:10.043Z,-2.70
2019-02-04T06:14:11.396Z,-2.80
2019-02-04T06:16:12.777Z,-2.80
2019-02-04T06:18:14.172Z,-2.80
2019-02-04T06:20:21.243Z,-2.80
2019-02-04T06:22:22.764Z,-2.80
2019-02-04T06:24:24.126Z,-2.80
2019-02-04T06:26:25.535Z,-2.80
2019-02-04T06:28:26.890Z,-2.80
2019-02-04T06:30:28.553Z,-2.80
2019-02-04T06:32:29.957Z,-2.80
2019-02-04T06:34:31.333Z,-2.80
2019-02-04T06:36:32.689Z,-2.80
2019-02-04T06:38:34.102Z,-2.80
2019-02-04T06:40:35.456Z,-2.80
2019-02-04T06:42:36.827Z,-2.80
2019-02-04T06:44:38.401Z,-2.80
2019-02-04T06:46:39.763Z,-2.80
2019-02-04T06:48:41.123Z,-2.90
2019-02-04T06:50:42.546Z,-2.90
2019-02-04T06:52:44.111Z,-2.90
2019-02-04T06:54:45.462Z,-2.80
2019-02-04T06:56:47.186Z,-2.80
2019-02-04T06:58:48.544Z,-2.80
2019-02-04T07:00:49.951Z,-2.80
2019-02-04T07:02:51.428Z,-2.80
2019-02-04T07:04:53.093Z,-2.80
2019-02-04T07:06:54.497Z,-2.70
2019-02-04T07:08:55.855Z,-2.70
2019-02-04T07:10:57.228Z,-2.70
2019-02-04T07:12:58.916Z,-2.70
2019-02-04T07:15:00.291Z,-2.70
2019-02-04T07:17:01.652Z,-2.70
2019-02-04T07:19:03.344Z,-2.70
2019-02-04T07:21:04.732Z,-2.60
2019-02-04T07:23:06.097Z,-2.60
2019-02-04T07:25:11.671Z,-2.60
2019-02-04T07:27:13.070Z,-2.60
2019-02-04T07:29:14.437Z,-2.60
2019-02-04T07:31:16.150Z,-2.50
2019-02-04T07:33:17.515Z,-2.40
2019-02-04T07:35:19.479Z,-2.40
2019-02-04T07:37:20.898Z,-2.30
2019-02-04T07:39:22.566Z,-2.30
2019-02-04T07:41:23.933Z,-2.30
2019-02-04T07:43:25.342Z,-2.30
2019-02-04T07:45:27.001Z,-2.30
2019-02-04T07:47:28.363Z,-2.30
2019-02-04T07:49:35.161Z,-2.30
2019-02-04T07:51:33.085Z,-2.30
2019-02-04T07:53:34.463Z,-2.30
2019-02-04T07:55:35.835Z,-2.30
2019-02-04T07:57:37.446Z,-2.30
2019-02-04T07:59:38.812Z,-2.20
2019-02-04T08:01:40.178Z,-2.20
2019-02-04T08:03:41.567Z,-2.10
2019-02-04T08:05:43.244Z,-2.00
2019-02-04T08:07:44.641Z,-1.90
2019-02-04T08:09:46.043Z,-1.80
2019-02-04T08:11:47.502Z,-1.60
2019-02-04T08:13:49.112Z,-1.40
2019-02-04T08:15:50.475Z,-1.30
2019-02-04T08:17:52.646Z,-1.30
2019-02-04T08:19:54.090Z,-1.10
2019-02-04T08:21:55.445Z,-1.00
2019-02-04T08:23:56.816Z,-0.90
2019-02-04T08:25:58.213Z,-0.80
2019-02-04T08:27:59.664Z,-0.70
2019-02-04T08:30:01.029Z,-0.70
2019-02-04T08:32:03.233Z,-0.50
2019-02-04T08:34:04.639Z,-0.50
2019-02-04T08:36:06.404Z,-0.40
2019-02-04T08:38:07.791Z,-0.40
2019-02-04T08:40:13.715Z,-0.30
2019-02-04T08:42:15.260Z,-0.30
2019-02-04T08:44:16.619Z,-0.10
2019-02-04T08:46:18.014Z,-0.10
2019-02-04T08:48:19.376Z,0.00
2019-02-04T08:50:24.438Z,0.10
2019-02-04T08:52:25.956Z,0.20
2019-02-04T08:54:27.342Z,0.30
2019-02-04T08:56:28.828Z,0.40
2019-02-04T08:58:30.307Z,0.40
2019-02-04T09:00:31.784Z,0.50
2019-02-04T09:02:33.131Z,0.60
2019-02-04T09:04:37.036Z,0.70
2019-02-04T09:06:37.857Z,0.80
2019-02-04T09:08:39.236Z,0.90
2019-02-04T09:10:40.653Z,1.00
2019-02-04T09:12:42.055Z,1.10
2019-02-04T09:14:43.853Z,1.20
2019-02-04T09:16:45.211Z,1.20
2019-02-04T09:18:46.610Z,1.30
2019-02-04T09:20:47.970Z,1.40
2019-02-04T09:22:49.655Z,1.40
2019-02-04T09:24:51.035Z,1.50
2019-02-04T09:26:52.495Z,1.60
2019-02-04T09:28:53.936Z,1.70
2019-02-04T09:30:55.299Z,1.70
2019-02-04T09:32:58.255Z,1.80
2019-02-04T09:34:59.660Z,1.80
2019-02-04T09:37:01.130Z,1.90
2019-02-04T09:39:06.399Z,1.90
2019-02-04T09:41:08.220Z,1.90
2019-02-04T09:43:09.803Z,2.10
2019-02-04T09:45:15.172Z,2.20
2019-02-04T09:47:16.568Z,2.20
2019-02-04T09:49:18.224Z,2.20
2019-02-04T09:51:19.606Z,2.30
2019-02-04T09:53:20.972Z,2.30
2019-02-04T09:55:26.882Z,2.40
2019-02-04T09:57:28.265Z,2.40
2019-02-04T09:59:29.723Z,2.50
2019-02-04T10:01:31.191Z,2.60
2019-02-04T10:03:32.547Z,2.60
2019-02-04T10:05:34.650Z,2.70
2019-02-04T10:07:36.377Z,2.80
2019-02-04T10:09:37.782Z,2.80
2019-02-04T10:11:39.196Z,2.80
2019-02-04T10:13:40.578Z,2.90
2019-02-04T10:15:45.675Z,3.00
2019-02-04T10:17:46.828Z,3.10
2019-02-04T10:19:48.326Z,3.20
2019-02-04T10:21:49.855Z,3.20
2019-02-04T10:23:51.362Z,3.20
2019-02-04T10:25:53.174Z,3.20
2019-02-04T10:27:54.709Z,3.30
2019-02-04T10:29:56.146Z,3.30
2019-02-04T10:31:57.524Z,3.40
2019-02-04T10:33:59.193Z,3.50
2019-02-04T10:36:00.721Z,3.60
2019-02-04T10:38:02.532Z,3.70
2019-02-04T10:40:20.250Z,3.70
2019-02-04T10:42:21.641Z,3.70
2019-02-04T10:44:23.085Z,3.90
2019-02-04T10:46:24.441Z,3.90
2019-02-04T10:48:25.853Z,3.90
2019-02-04T10:50:45.743Z,3.90
2019-02-04T10:52:41.713Z,4.00
2019-02-04T10:54:43.069Z,4.00
2019-02-04T10:56:44.502Z,4.00
2019-02-04T10:58:45.961Z,4.10
2019-02-04T11:00:47.505Z,4.10
2019-02-04T11:02:49.161Z,4.20
2019-02-04T11:04:50.532Z,4.20
2019-02-04T11:06:51.994Z,4.30
2019-02-04T11:08:53.379Z,4.30
2019-02-04T11:10:55.058Z,4.30
2019-02-04T11:12:57.054Z,4.30
2019-02-04T11:14:58.398Z,4.30
2019-02-04T11:16:59.813Z,4.40
2019-02-04T11:19:01.170Z,4.40
2019-02-04T11:21:03.264Z,4.50
2019-02-04T11:23:06.999Z,4.50
2019-02-04T11:25:08.824Z,4.50
2019-02-04T11:27:10.370Z,4.70
2019-02-04T11:29:11.913Z,4.70
2019-02-04T11:31:13.416Z,4.70
2019-02-04T11:33:14.764Z,4.60
2019-02-04T11:35:16.566Z,4.60
2019-02-04T11:37:17.933Z,4.60
2019-02-04T11:39:19.596Z,4.70
2019-02-04T11:41:21.041Z,4.80
2019-02-04T11:43:22.513Z,4.90
2019-02-04T11:45:24.221Z,5.00
2019-02-04T11:47:25.919Z,5.10
2019-02-04T11:49:27.242Z,5.10
2019-02-04T11:51:28.608Z,5.20
2019-02-04T11:53:32.891Z,5.20
2019-02-04T11:55:33.388Z,5.20
2019-02-04T11:57:35.109Z,5.20
2019-02-04T11:59:36.471Z,5.20
2019-02-04T12:01:37.860Z,5.20
2019-02-04T12:03:39.227Z,5.20
2019-02-04T12:05:41.104Z,5.20
2019-02-04T12:07:42.480Z,5.20
2019-02-04T12:09:43.870Z,5.20
2019-02-04T12:11:48.227Z,5.30
2019-02-04T12:13:49.631Z,5.20
2019-02-04T12:15:51.997Z,5.30
2019-02-04T12:17:53.528Z,5.30
2019-02-04T12:19:54.996Z,5.30
2019-02-04T12:21:56.417Z,5.20
2019-02-04T12:23:57.799Z,5.30
2019-02-04T12:25:59.227Z,5.40
2019-02-04T12:28:00.651Z,5.50
2019-02-04T12:30:22.634Z,5.50
2019-02-04T12:32:24.000Z,5.50
2019-02-04T12:34:25.409Z,5.60
2019-02-04T12:36:26.946Z,5.60
2019-02-04T12:38:28.314Z,5.60
2019-02-04T12:40:29.675Z,5.50
2019-02-04T12:42:31.068Z,5.50
2019-02-04T12:44:32.448Z,5.60
2019-02-04T12:46:33.855Z,5.60
2019-02-04T12:48:35.247Z,5.70
2019-02-04T12:50:36.722Z,5.60
2019-02-04T12:52:38.177Z,5.60
2019-02-04T12:54:39.534Z,5.60
2019-02-04T12:56:40.863Z,5.60
2019-02-04T12:58:42.326Z,5.60
2019-02-04T13:00:45.575Z,5.70
2019-02-04T13:02:47.037Z,5.60
2019-02-04T13:04:48.431Z,5.60
2019-02-04T13:06:49.891Z,5.60
2019-02-04T13:08:51.271Z,5.70
2019-02-04T13:10:52.749Z,5.60
2019-02-04T13:12:54.350Z,5.70
2019-02-04T13:14:55.873Z,5.70
2019-02-04T13:16:57.240Z,5.70
2019-02-04T13:18:58.611Z,5.70
2019-02-04T13:21:00.004Z,5.60
2019-02-04T13:23:01.365Z,5.60
2019-02-04T13:25:07.256Z,5.60
2019-02-04T13:27:08.915Z,5.70
2019-02-04T13:29:10.340Z,5.70
2019-02-04T13:31:11.943Z,5.80
2019-02-04T13:33:13.303Z,5.70
2019-02-04T13:35:15.281Z,5.80
2019-02-04T13:37:16.745Z,5.80
2019-02-04T13:39:18.097Z,5.80
2019-02-04T13:41:19.863Z,5.90
2019-02-04T13:43:21.235Z,5.80
2019-02-04T13:45:22.803Z,5.80
2019-02-04T13:47:24.216Z,5.80
2019-02-04T13:49:25.575Z,5.80
2019-02-04T13:51:26.950Z,5.60
2019-02-04T13:53:29.757Z,5.50
2019-02-04T13:55:33.927Z,5.50
2019-02-04T13:57:35.308Z,5.50
2019-02-04T13:59:36.719Z,5.50
2019-02-04T14:01:38.287Z,5.50
2019-02-04T14:03:39.650Z,5.50
2019-02-04T14:05:41.008Z,5.50
2019-02-04T14:07:42.436Z,5.60
2019-02-04T14:09:44.095Z,5.50
2019-02-04T14:11:45.760Z,5.50
2019-02-04T14:13:47.244Z,5.40
2019-02-04T14:15:48.681Z,5.40
2019-02-04T14:17:50.037Z,5.40
2019-02-04T14:19:51.507Z,5.30
2019-02-04T14:21:52.922Z,5.20
2019-02-04T14:23:54.288Z,5.20
2019-02-04T14:25:55.649Z,5.00
2019-02-04T14:27:57.941Z,5.10
2019-02-04T14:29:59.317Z,5.00
2019-02-04T14:32:00.677Z,5.00
2019-02-04T14:34:02.186Z,5.10
2019-02-04T14:36:03.551Z,5.00
2019-02-04T14:38:05.582Z,5.10
2019-02-04T14:40:18.106Z,5.10
2019-02-04T14:42:13.776Z,5.00
2019-02-04T14:44:18.449Z,5.00
2019-02-04T14:46:28.578Z,5.00
2019-02-04T14:48:50.525Z,5.10
2019-02-04T14:51:24.424Z,5.10
2019-02-04T14:53:43.441Z,4.80
2019-02-04T14:55:59.412Z,4.80
2019-02-04T14:58:06.474Z,4.30
2019-02-04T15:00:42.688Z,4.30
2019-02-04T15:02:52.639Z,4.30
2019-02-04T15:04:59.716Z,4.20
2019-02-04T15:07:23.656Z,4.10
2019-02-04T15:10:03.262Z,4.00
2019-02-04T15:12:16.429Z,3.90
2019-02-04T15:14:46.940Z,3.80
2019-02-04T15:17:00.059Z,3.70
2019-02-04T15:19:25.052Z,3.50
2019-02-04T15:22:04.282Z,3.40
2019-02-04T15:24:40.927Z,3.50
2019-02-04T15:27:13.359Z,3.30
2019-02-04T15:29:22.962Z,3.20
2019-02-04T15:31:44.555Z,3.00
2019-02-04T15:33:57.493Z,3.10
2019-02-04T15:36:22.427Z,3.00
2019-02-04T15:38:29.646Z,3.00
2019-02-04T15:40:42.041Z,3.00
2019-02-04T15:43:23.156Z,3.00
2019-02-04T15:45:42.857Z,2.90
2019-02-04T15:47:52.984Z,2.80
2019-02-04T15:50:21.112Z,2.80
2019-02-04T15:52:22.705Z,2.80
2019-02-04T15:54:24.297Z,2.70
2019-02-04T15:56:25.652Z,2.60
2019-02-04T15:58:27.171Z,2.60
2019-02-04T16:00:28.656Z,2.50
2019-02-04T16:02:30.028Z,2.40
2019-02-04T16:04:34.714Z,2.40
2019-02-04T16:06:36.075Z,2.40
2019-02-04T16:08:37.455Z,2.30
2019-02-04T16:10:39.316Z,2.20
2019-02-04T16:12:40.675Z,2.20
2019-02-04T16:14:42.048Z,2.10
2019-02-04T16:16:43.608Z,2.10
2019-02-04T16:18:45.167Z,2.10
2019-02-04T16:20:46.540Z,2.10
2019-02-04T16:22:57.950Z,2.00
2019-02-04T16:24:51.582Z,2.00
2019-02-04T16:26:52.948Z,1.90
2019-02-04T16:28:54.376Z,1.80
2019-02-04T16:30:55.789Z,1.80
2019-02-04T16:32:57.150Z,1.80
2019-02-04T16:34:58.575Z,1.70
2019-02-04T16:37:00.396Z,1.70
2019-02-04T16:39:03.981Z,1.70
2019-02-04T16:41:05.341Z,1.60
2019-02-04T16:43:06.710Z,1.60
2019-02-04T16:45:12.847Z,1.60
2019-02-04T16:47:14.225Z,1.50
2019-02-04T16:49:15.615Z,1.40
2019-02-04T16:51:17.020Z,1.40
2019-02-04T16:53:18.390Z,1.30
2019-02-04T16:55:19.855Z,1.20
2019-02-04T16:57:21.292Z,1.20
2019-02-04T16:59:22.655Z,1.10
2019-02-04T17:01:24.016Z,1.20
2019-02-04T17:03:25.850Z,1.20
2019-02-04T17:05:27.409Z,1.20
2019-02-04T17:07:28.772Z,1.20
2019-02-04T17:09:30.347Z,1.20
2019-02-04T17:11:32.100Z,1.10
2019-02-04T17:13:33.467Z,1.20
2019-02-04T17:15:35.015Z,1.10
2019-02-04T17:17:36.381Z,1.00
2019-02-04T17:19:37.958Z,1.00
2019-02-04T17:21:39.594Z,1.00
2019-02-04T17:23:40.980Z,1.00
2019-02-04T17:25:42.326Z,1.00
2019-02-04T17:27:43.868Z,0.90
2019-02-04T17:29:45.329Z,0.90
2019-02-04T17:31:46.783Z,0.90
2019-02-04T17:33:48.207Z,0.90
2019-02-04T17:35:49.575Z,0.80
2019-02-04T17:37:50.945Z,0.80
2019-02-04T17:39:52.494Z,0.70
2019-02-04T17:41:54.071Z,0.70
2019-02-04T17:43:55.538Z,0.70
2019-02-04T17:45:57.447Z,0.70
2019-02-04T17:47:58.817Z,0.70
2019-02-04T17:50:00.325Z,0.60
2019-02-04T17:52:01.840Z,0.60
2019-02-04T17:54:05.228Z,0.60
2019-02-04T17:56:06.883Z,0.70
2019-02-04T17:58:08.410Z,0.70
2019-02-04T18:00:21.040Z,0.70
2019-02-04T18:02:22.460Z,0.70
2019-02-04T18:04:23.979Z,0.70
2019-02-04T18:06:25.668Z,0.70
2019-02-04T18:08:27.055Z,0.70
2019-02-04T18:10:28.411Z,0.70
2019-02-04T18:12:29.828Z,0.60
2019-02-04T18:14:31.246Z,0.60
2019-02-04T18:16:32.725Z,0.60
2019-02-04T18:18:34.084Z,0.60
2019-02-04T18:20:35.569Z,0.70
2019-02-04T18:22:38.834Z,0.60
2019-02-04T18:24:40.200Z,0.60
2019-02-04T18:26:41.915Z,0.60
2019-02-04T18:28:43.279Z,0.60
2019-02-04T18:30:44.645Z,0.60
2019-02-04T18:32:46.381Z,0.60
2019-02-04T18:34:47.759Z,0.60
2019-02-04T18:36:49.319Z,0.50
2019-02-04T18:38:50.737Z,0.50
2019-02-04T18:40:52.103Z,0.50
2019-02-04T18:42:53.573Z,0.60
2019-02-04T18:44:55.098Z,0.50
2019-02-04T18:46:56.462Z,0.50
2019-02-04T18:48:57.828Z,0.50
2019-02-04T18:50:59.245Z,0.50
2019-02-04T18:53:00.688Z,0.40
2019-02-04T18:55:04.266Z,0.40
2019-02-04T18:57:05.644Z,0.40
2019-02-04T18:59:07.476Z,0.40
2019-02-04T19:01:08.939Z,0.40
2019-02-04T19:03:17.457Z,0.40
2019-02-04T19:05:14.322Z,0.40
2019-02-04T19:07:15.785Z,0.40
2019-02-04T19:09:17.167Z,0.40
2019-02-04T19:11:18.589Z,0.40
2019-02-04T19:13:19.950Z,0.40
2019-02-04T19:15:26.894Z,0.30
2019-02-04T19:17:28.328Z,0.30
2019-02-04T19:19:29.743Z,0.30
2019-02-04T19:21:31.108Z,0.30
2019-02-04T19:23:32.487Z,0.30
2019-02-04T19:25:34.344Z,0.30
2019-02-04T19:27:35.812Z,0.20
2019-02-04T19:29:37.174Z,0.20
2019-02-04T19:31:38.605Z,0.20
2019-02-04T19:33:40.294Z,0.20
2019-02-04T19:35:41.653Z,0.20
2019-02-04T19:37:43.105Z,0.20
2019-02-04T19:39:44.461Z,0.20
2019-02-04T19:41:45.829Z,0.20
2019-02-04T19:43:47.254Z,0.20
2019-02-04T19:45:48.642Z,0.20
2019-02-04T19:47:51.125Z,0.10
2019-02-04T19:49:52.555Z,0.20
2019-02-04T19:51:55.252Z,0.10
2019-02-04T19:53:56.792Z,0.10
2019-02-04T19:55:58.469Z,0.00
2019-02-04T19:57:59.838Z,0.10
2019-02-04T20:00:05.022Z,0.10
2019-02-04T20:02:06.400Z,0.00
2019-02-04T20:04:07.754Z,0.10
2019-02-04T20:06:09.473Z,0.10
2019-02-04T20:08:10.918Z,0.00
2019-02-04T20:10:15.963Z,0.00
2019-02-04T20:12:17.493Z,0.00
2019-02-04T20:14:18.879Z,0.00
2019-02-04T20:16:20.245Z,0.00
2019-02-04T20:18:21.788Z,0.00
2019-02-04T20:20:24.168Z,0.00
2019-02-04T20:22:25.518Z,0.00
2019-02-04T20:24:33.237Z,0.00
2019-02-04T20:26:30.488Z,0.00
2019-02-04T20:28:31.872Z,0.10
2019-02-04T20:30:46.114Z,0.10
2019-02-04T20:32:46.386Z,0.00
2019-02-04T20:34:47.832Z,0.00
2019-02-04T20:36:49.566Z,0.10
2019-02-04T20:38:51.037Z,0.10
2019-02-04T20:40:52.411Z,0.00
2019-02-04T20:42:54.063Z,0.00
2019-02-04T20:44:55.720Z,0.00
2019-02-04T20:46:57.108Z,0.00
2019-02-04T20:49:00.442Z,0.00
2019-02-04T20:51:01.823Z,0.00
2019-02-04T20:53:03.588Z,0.10
2019-02-04T20:55:05.527Z,0.00
2019-02-04T20:57:06.892Z,0.10
2019-02-04T20:59:08.410Z,0.00
2019-02-04T21:01:09.844Z,0.10
2019-02-04T21:03:11.306Z,0.10
2019-02-04T21:05:13.335Z,0.10
2019-02-04T21:07:14.701Z,0.10
2019-02-04T21:09:16.068Z,0.10
2019-02-04T21:11:17.984Z,0.20
2019-02-04T21:13:19.361Z,0.10
2019-02-04T21:15:22.242Z,0.10
2019-02-04T21:17:23.655Z,0.20
2019-02-04T21:19:25.331Z,0.20
2019-02-04T21:21:26.770Z,0.20
2019-02-04T21:23:28.143Z,0.20
2019-02-04T21:25:29.514Z,0.20
2019-02-04T21:27:30.951Z,0.20
2019-02-04T21:29:32.729Z,0.20
2019-02-04T21:31:34.092Z,0.20
2019-02-04T21:33:35.513Z,0.20
2019-02-04T21:35:37.063Z,0.20
2019-02-04T21:37:38.431Z,0.20
2019-02-04T21:39:39.894Z,0.20
2019-02-04T21:41:41.257Z,0.20
2019-02-04T21:43:42.617Z,0.20
2019-02-04T21:45:44.469Z,0.20
2019-02-04T21:47:46.347Z,0.20
2019-02-04T21:49:47.710Z,0.20
2019-02-04T21:51:49.139Z,0.20
2019-02-04T21:53:50.712Z,0.20
2019-02-04T21:55:53.205Z,0.20
2019-02-04T21:57:54.738Z,0.20
2019-02-04T21:59:56.114Z,0.20
2019-02-04T22:01:57.469Z,0.20
2019-02-04T22:03:58.905Z,0.20
2019-02-04T22:06:00.270Z,0.20
2019-02-04T22:08:01.636Z,0.20
2019-02-04T22:10:11.602Z,0.20
2019-02-04T22:12:12.981Z,0.20
2019-02-04T22:14:14.355Z,0.20
2019-02-04T22:16:16.024Z,0.20
2019-02-04T22:18:17.407Z,0.20
2019-02-04T22:20:19.566Z,0.20
2019-02-04T22:22:22.037Z,0.20
2019-02-04T22:24:23.406Z,0.10
2019-02-04T22:26:24.779Z,0.10
2019-02-04T22:28:26.461Z,0.10
2019-02-04T22:30:29.228Z,0.20
2019-02-04T22:32:30.593Z,0.20
2019-02-04T22:34:32.038Z,0.20
2019-02-04T22:36:33.587Z,0.20
2019-02-04T22:38:34.990Z,0.20
2019-02-04T22:40:36.504Z,0.20
2019-02-04T22:42:37.857Z,0.20
2019-02-04T22:44:39.222Z,0.20
2019-02-04T22:46:40.640Z,0.20
2019-02-04T22:48:43.095Z,0.20
2019-02-04T22:50:44.644Z,0.20
2019-02-04T22:52:46.140Z,0.20
2019-02-04T22:54:48.243Z,0.20
2019-02-04T22:56:49.616Z,0.20
2019-02-04T22:58:52.288Z,0.30
2019-02-04T23:01:02.372Z,0.30
2019-02-04T23:03:03.734Z,0.20
2019-02-04T23:05:05.595Z,0.20
2019-02-04T23:07:07.314Z,0.20
2019-02-04T23:09:08.812Z,0.20
2019-02-04T23:11:10.268Z,0.20
2019-02-04T23:13:12.090Z,0.20
2019-02-04T23:15:13.447Z,0.10
2019-02-04T23:17:14.779Z,0.20
2019-02-04T23:19:16.189Z,0.10
2019-02-04T23:21:17.592Z,0.10
2019-02-04T23:23:19.087Z,0.00
2019-02-04T23:25:20.473Z,0.10
2019-02-04T23:27:21.879Z,0.10
2019-02-04T23:29:23.245Z,0.00
2019-02-04T23:31:24.614Z,0.00
2019-02-04T23:33:33.886Z,0.10
2019-02-04T23:35:29.287Z,0.00
2019-02-04T23:37:30.647Z,0.00
2019-02-04T23:39:32.369Z,-0.10
2019-02-04T23:41:33.869Z,-0.10
2019-02-04T23:43:35.236Z,-0.10
2019-02-04T23:45:36.608Z,-0.20
2019-02-04T23:47:38.036Z,-0.10
2019-02-04T23:49:39.711Z,-0.20
2019-02-04T23:51:41.082Z,-0.20
2019-02-04T23:53:42.480Z,-0.10
2019-02-04T23:55:54.122Z,-0.10
2019-02-04T23:57:47.472Z,-0.10
2019-02-04T23:59:48.827Z,-0.20
